sensor_id;sensor_type;location;lat;lon;timestamp;pressure;altitude;pressure_sealevel;temperature;humidity
19795;BME280;10057;59.402;17.866;2023-01-31T00:01:41;99142.78;;;2.09;59.26
19795;BME280;10057;59.402;17.866;2023-01-31T00:04:10;99150.72;;;2.06;59.09
19795;BME280;10057;59.402;17.866;2023-01-31T00:06:41;99140.25;;;2.06;59.00
19795;BME280;10057;59.402;17.866;2023-01-31T00:09:09;99148.13;;;2.06;59.37
19795;BME280;10057;59.402;17.866;2023-01-31T00:11:37;99152.53;;;2.04;59.41
19795;BME280;10057;59.402;17.866;2023-01-31T00:14:05;99150.91;;;2.00;58.95
19795;BME280;10057;59.402;17.866;2023-01-31T00:16:32;99150.03;;;1.99;58.98
19795;BME280;10057;59.402;17.866;2023-01-31T00:19:00;99150.06;;;1.98;59.05
19795;BME280;10057;59.402;17.866;2023-01-31T00:21:28;99155.28;;;1.98;58.81
19795;BME280;10057;59.402;17.866;2023-01-31T00:23:56;99164.03;;;1.97;59.17
19795;BME280;10057;59.402;17.866;2023-01-31T00:26:25;99163.19;;;1.96;59.22
19795;BME280;10057;59.402;17.866;2023-01-31T00:28:54;99167.56;;;1.96;58.95
19795;BME280;10057;59.402;17.866;2023-01-31T00:31:23;99165.84;;;1.95;59.06
19795;BME280;10057;59.402;17.866;2023-01-31T00:33:52;99183.34;;;1.93;59.44
19795;BME280;10057;59.402;17.866;2023-01-31T00:36:22;99184.28;;;1.90;59.32
19795;BME280;10057;59.402;17.866;2023-01-31T00:38:50;99193.03;;;1.89;59.33
19795;BME280;10057;59.402;17.866;2023-01-31T00:41:19;99202.56;;;1.92;59.24
19795;BME280;10057;59.402;17.866;2023-01-31T00:43:47;99201.66;;;1.93;59.66
19795;BME280;10057;59.402;17.866;2023-01-31T00:46:14;99206.06;;;1.90;59.61
19795;BME280;10057;59.402;17.866;2023-01-31T00:48:42;99215.63;;;1.92;59.25
19795;BME280;10057;59.402;17.866;2023-01-31T00:51:08;99227.84;;;1.91;59.71
19795;BME280;10057;59.402;17.866;2023-01-31T00:53:35;99232.19;;;1.90;59.76
19795;BME280;10057;59.402;17.866;2023-01-31T00:56:14;99225.28;;;1.88;59.70
19795;BME280;10057;59.402;17.866;2023-01-31T00:58:41;99222.69;;;1.88;59.61
19795;BME280;10057;59.402;17.866;2023-01-31T01:01:11;99220.88;;;1.90;59.69
19795;BME280;10057;59.402;17.866;2023-01-31T01:03:38;99240.97;;;1.89;59.30
19795;BME280;10057;59.402;17.866;2023-01-31T01:06:07;99238.34;;;1.89;59.19
19795;BME280;10057;59.402;17.866;2023-01-31T01:08:35;99239.25;;;1.88;59.47
19795;BME280;10057;59.402;17.866;2023-01-31T01:11:09;99237.50;;;1.87;59.78
19795;BME280;10057;59.402;17.866;2023-01-31T01:13:37;99237.50;;;1.87;59.54
19795;BME280;10057;59.402;17.866;2023-01-31T01:16:15;99230.56;;;1.86;59.58
19795;BME280;10057;59.402;17.866;2023-01-31T01:18:43;99241.09;;;1.85;59.73
19795;BME280;10057;59.402;17.866;2023-01-31T01:21:20;99254.25;;;1.82;59.86
19795;BME280;10057;59.402;17.866;2023-01-31T01:23:47;99252.47;;;1.82;59.86
19795;BME280;10057;59.402;17.866;2023-01-31T01:26:20;99262.03;;;1.83;59.71
19795;BME280;10057;59.402;17.866;2023-01-31T01:28:48;99254.25;;;1.82;60.12
19795;BME280;10057;59.402;17.866;2023-01-31T01:31:16;99262.03;;;1.83;59.75
19795;BME280;10057;59.402;17.866;2023-01-31T01:33:44;99276.00;;;1.82;59.93
19795;BME280;10057;59.402;17.866;2023-01-31T01:36:13;99281.31;;;1.79;60.27
19795;BME280;10057;59.402;17.866;2023-01-31T01:38:44;99274.38;;;1.78;60.34
19795;BME280;10057;59.402;17.866;2023-01-31T01:41:11;99277.00;;;1.77;60.56
19795;BME280;10057;59.402;17.866;2023-01-31T01:43:48;99292.75;;;1.75;60.55
19795;BME280;10057;59.402;17.866;2023-01-31T01:46:28;99288.41;;;1.74;60.76
19795;BME280;10057;59.402;17.866;2023-01-31T01:51:39;99300.59;;;1.75;61.02
19795;BME280;10057;59.402;17.866;2023-01-31T01:54:12;99300.66;;;1.72;60.75
19795;BME280;10057;59.402;17.866;2023-01-31T01:56:44;99311.13;;;1.72;61.03
19795;BME280;10057;59.402;17.866;2023-01-31T01:59:19;99309.41;;;1.71;61.17
19795;BME280;10057;59.402;17.866;2023-01-31T02:01:49;99320.72;;;1.72;61.30
19795;BME280;10057;59.402;17.866;2023-01-31T02:04:21;99318.13;;;1.72;61.30
19795;BME280;10057;59.402;17.866;2023-01-31T02:06:48;99311.13;;;1.72;61.08
19795;BME280;10057;59.402;17.866;2023-01-31T02:10:02;99320.72;;;1.72;61.00
19795;BME280;10057;59.402;17.866;2023-01-31T02:12:31;99321.72;;;1.66;60.84
19795;BME280;10057;59.402;17.866;2023-01-31T02:14:59;99328.72;;;1.64;61.30
19795;BME280;10057;59.402;17.866;2023-01-31T02:17:26;99333.97;;;1.64;61.41
19795;BME280;10057;59.402;17.866;2023-01-31T02:36:06;99352.25;;;1.64;61.13
19795;BME280;10057;59.402;17.866;2023-01-31T02:41:35;99359.31;;;1.60;61.41
19795;BME280;10057;59.402;17.866;2023-01-31T02:44:17;99360.25;;;1.58;61.36
19795;BME280;10057;59.402;17.866;2023-01-31T02:49:51;99366.59;;;1.48;61.89
19795;BME280;10057;59.402;17.866;2023-01-31T02:53:27;99363.19;;;1.42;61.95
19795;BME280;10057;59.402;17.866;2023-01-31T02:55:25;99359.84;;;1.37;62.06
19795;BME280;10057;59.402;17.866;2023-01-31T02:58:13;99365.22;;;1.30;62.60
19795;BME280;10057;59.402;17.866;2023-01-31T03:00:43;99369.72;;;1.23;62.47
19795;BME280;10057;59.402;17.866;2023-01-31T03:03:23;99365.44;;;1.19;62.56
19795;BME280;10057;59.402;17.866;2023-01-31T03:17:13;99386.56;;;1.08;63.08
19795;BME280;10057;59.402;17.866;2023-01-31T03:20:11;99382.25;;;1.06;62.86
19795;BME280;10057;59.402;17.866;2023-01-31T03:22:45;99385.75;;;1.05;63.25
19795;BME280;10057;59.402;17.866;2023-01-31T03:25:17;99385.75;;;1.06;63.04
19795;BME280;10057;59.402;17.866;2023-01-31T03:27:51;99391.78;;;1.08;63.31
19795;BME280;10057;59.402;17.866;2023-01-31T03:30:35;99383.94;;;1.08;62.95
19795;BME280;10057;59.402;17.866;2023-01-31T03:33:22;99394.44;;;1.05;63.27
19795;BME280;10057;59.402;17.866;2023-01-31T03:36:01;99387.47;;;1.06;63.24
19795;BME280;10057;59.402;17.866;2023-01-31T03:38:34;99394.44;;;1.07;63.53
19795;BME280;10057;59.402;17.866;2023-01-31T03:41:24;99387.41;;;1.10;63.21
19795;BME280;10057;59.402;17.866;2023-01-31T03:44:00;99399.53;;;1.13;63.31
19795;BME280;10057;59.402;17.866;2023-01-31T03:47:07;99400.41;;;1.12;63.46
19795;BME280;10057;59.402;17.866;2023-01-31T03:49:37;99389.13;;;1.11;63.29
19795;BME280;10057;59.402;17.866;2023-01-31T03:52:07;99404.78;;;1.13;63.27
19795;BME280;10057;59.402;17.866;2023-01-31T03:54:40;99403.88;;;1.12;63.13
19795;BME280;10057;59.402;17.866;2023-01-31T03:57:20;99400.41;;;1.12;63.08
19795;BME280;10057;59.402;17.866;2023-01-31T03:59:51;99409.16;;;1.09;63.24
19795;BME280;10057;59.402;17.866;2023-01-31T04:02:28;99417.09;;;1.05;63.37
19795;BME280;10057;59.402;17.866;2023-01-31T04:07:32;99418.91;;;1.01;63.55
19795;BME280;10057;59.402;17.866;2023-01-31T04:09:59;99425.00;;;1.02;63.63
19795;BME280;10057;59.402;17.866;2023-01-31T04:12:26;99430.22;;;1.03;63.50
19795;BME280;10057;59.402;17.866;2023-01-31T04:14:53;99432.81;;;1.03;63.75
19795;BME280;10057;59.402;17.866;2023-01-31T04:17:19;99427.56;;;1.05;63.67
19795;BME280;10057;59.402;17.866;2023-01-31T04:19:46;99430.16;;;1.06;63.25
19795;BME280;10057;59.402;17.866;2023-01-31T04:22:12;99430.06;;;1.09;63.23
19795;BME280;10057;59.402;17.866;2023-01-31T04:24:39;99434.44;;;1.09;63.42
19795;BME280;10057;59.402;17.866;2023-01-31T04:27:06;99445.72;;;1.09;63.64
19795;BME280;10057;59.402;17.866;2023-01-31T04:29:32;99442.28;;;1.09;63.33
19795;BME280;10057;59.402;17.866;2023-01-31T04:31:59;99433.56;;;1.10;63.43
19795;BME280;10057;59.402;17.866;2023-01-31T04:34:26;99437.09;;;1.07;63.24
19795;BME280;10057;59.402;17.866;2023-01-31T04:36:53;99444.06;;;1.05;63.28
19795;BME280;10057;59.402;17.866;2023-01-31T04:39:19;99439.78;;;1.03;63.64
19795;BME280;10057;59.402;17.866;2023-01-31T04:41:46;99432.88;;;0.99;63.51
19795;BME280;10057;59.402;17.866;2023-01-31T04:44:13;99439.91;;;0.97;63.45
19795;BME280;10057;59.402;17.866;2023-01-31T04:46:42;99446.91;;;0.94;63.97
19795;BME280;10057;59.402;17.866;2023-01-31T04:49:08;99448.69;;;0.92;63.89
19795;BME280;10057;59.402;17.866;2023-01-31T04:51:35;99448.69;;;0.91;63.89
19795;BME280;10057;59.402;17.866;2023-01-31T04:54:02;99443.53;;;0.89;64.32
19795;BME280;10057;59.402;17.866;2023-01-31T04:56:29;99449.63;;;0.88;64.01
19795;BME280;10057;59.402;17.866;2023-01-31T04:58:55;99457.50;;;0.85;64.08
19795;BME280;10057;59.402;17.866;2023-01-31T05:01:22;99454.88;;;0.85;64.37
19795;BME280;10057;59.402;17.866;2023-01-31T05:03:49;99459.25;;;0.86;64.34
19795;BME280;10057;59.402;17.866;2023-01-31T05:06:16;99463.63;;;0.86;64.41
19795;BME280;10057;59.402;17.866;2023-01-31T05:08:43;99455.84;;;0.81;64.26
19795;BME280;10057;59.402;17.866;2023-01-31T05:11:09;99458.41;;;0.84;64.29
19795;BME280;10057;59.402;17.866;2023-01-31T05:13:36;99465.38;;;0.84;64.50
19795;BME280;10057;59.402;17.866;2023-01-31T05:16:08;99472.31;;;0.85;64.18
19795;BME280;10057;59.402;17.866;2023-01-31T05:18:36;99454.03;;;0.86;64.35
19795;BME280;10057;59.402;17.866;2023-01-31T05:21:05;99461.84;;;0.86;64.33
19795;BME280;10057;59.402;17.866;2023-01-31T05:23:32;99469.63;;;0.89;64.41
19795;BME280;10057;59.402;17.866;2023-01-31T05:25:59;99463.50;;;0.90;64.08
19795;BME280;10057;59.402;17.866;2023-01-31T05:28:26;99469.63;;;0.89;64.01
19795;BME280;10057;59.402;17.866;2023-01-31T05:30:53;99475.66;;;0.91;64.00
19795;BME280;10057;59.402;17.866;2023-01-31T05:33:26;99475.72;;;0.90;64.14
19795;BME280;10057;59.402;17.866;2023-01-31T05:35:55;99476.56;;;0.90;63.94
19795;BME280;10057;59.402;17.866;2023-01-31T05:38:22;99473.91;;;0.92;63.96
19795;BME280;10057;59.402;17.866;2023-01-31T05:40:49;99465.22;;;0.91;64.33
19795;BME280;10057;59.402;17.866;2023-01-31T05:43:16;99468.75;;;0.89;64.05
19795;BME280;10057;59.402;17.866;2023-01-31T05:45:42;99472.31;;;0.86;64.22
19795;BME280;10057;59.402;17.866;2023-01-31T05:48:10;99474.97;;;0.83;64.05
19795;BME280;10057;59.402;17.866;2023-01-31T05:50:36;99471.50;;;0.81;64.02
19795;BME280;10057;59.402;17.866;2023-01-31T05:53:03;99465.47;;;0.79;64.10
19795;BME280;10057;59.402;17.866;2023-01-31T05:55:30;99466.38;;;0.77;64.28
19795;BME280;10057;59.402;17.866;2023-01-31T05:57:57;99477.72;;;0.74;64.48
19795;BME280;10057;59.402;17.866;2023-01-31T06:00:27;99476.06;;;0.70;64.15
19795;BME280;10057;59.402;17.866;2023-01-31T06:02:56;99482.22;;;0.66;64.22
19795;BME280;10057;59.402;17.866;2023-01-31T06:05:24;99484.00;;;0.64;64.40
19795;BME280;10057;59.402;17.866;2023-01-31T06:07:50;99489.25;;;0.62;64.16
19795;BME280;10057;59.402;17.866;2023-01-31T06:10:17;99481.50;;;0.56;64.21
19795;BME280;10057;59.402;17.866;2023-01-31T06:12:46;99485.03;;;0.54;64.16
19795;BME280;10057;59.402;17.866;2023-01-31T06:15:13;99481.66;;;0.49;64.48
19795;BME280;10057;59.402;17.866;2023-01-31T06:17:40;99484.25;;;0.47;64.57
19795;BME280;10057;59.402;17.866;2023-01-31T06:20:07;99484.31;;;0.45;64.47
19795;BME280;10057;59.402;17.866;2023-01-31T06:22:34;99480.84;;;0.43;64.57
19795;BME280;10057;59.402;17.866;2023-01-31T06:25:01;99473.09;;;0.39;64.54
19795;BME280;10057;59.402;17.866;2023-01-31T06:27:30;99473.09;;;0.39;64.62
19795;BME280;10057;59.402;17.866;2023-01-31T06:29:57;99469.69;;;0.35;65.05
19795;BME280;10057;59.402;17.866;2023-01-31T06:32:24;99470.56;;;0.34;64.92
19795;BME280;10057;59.402;17.866;2023-01-31T06:34:51;99474.94;;;0.32;64.70
19795;BME280;10057;59.402;17.866;2023-01-31T06:37:17;99475.78;;;0.34;65.01
19795;BME280;10057;59.402;17.866;2023-01-31T06:39:44;99467.13;;;0.32;65.20
19795;BME280;10057;59.402;17.866;2023-01-31T06:42:11;99481.81;;;0.36;65.10
19795;BME280;10057;59.402;17.866;2023-01-31T06:44:38;99480.06;;;0.37;65.12
19795;BME280;10057;59.402;17.866;2023-01-31T06:47:05;99485.28;;;0.37;64.81
19795;BME280;10057;59.402;17.866;2023-01-31T06:49:31;99487.09;;;0.35;64.92
19795;BME280;10057;59.402;17.866;2023-01-31T06:51:58;99489.69;;;0.35;65.19
19795;BME280;10057;59.402;17.866;2023-01-31T06:54:25;99501.00;;;0.35;65.02
19795;BME280;10057;59.402;17.866;2023-01-31T06:56:51;99504.50;;;0.34;65.13
19795;BME280;10057;59.402;17.866;2023-01-31T06:59:19;99501.00;;;0.34;65.02
19795;BME280;10057;59.402;17.866;2023-01-31T07:01:45;99516.66;;;0.34;64.97
19795;BME280;10057;59.402;17.866;2023-01-31T07:04:12;99514.06;;;0.32;65.30
19795;BME280;10057;59.402;17.866;2023-01-31T07:06:39;99521.91;;;0.31;65.17
19795;BME280;10057;59.402;17.866;2023-01-31T07:09:06;99517.53;;;0.33;65.13
19795;BME280;10057;59.402;17.866;2023-01-31T07:11:33;99522.75;;;0.34;65.11
19795;BME280;10057;59.402;17.866;2023-01-31T07:13:59;99517.53;;;0.34;65.18
19795;BME280;10057;59.402;17.866;2023-01-31T07:16:26;99521.00;;;0.33;65.36
19795;BME280;10057;59.402;17.866;2023-01-31T07:18:54;99516.66;;;0.34;65.23
19795;BME280;10057;59.402;17.866;2023-01-31T07:21:22;99517.53;;;0.34;65.46
19795;BME280;10057;59.402;17.866;2023-01-31T07:23:49;99533.19;;;0.34;65.29
19795;BME280;10057;59.402;17.866;2023-01-31T07:26:16;99532.28;;;0.35;65.37
19795;BME280;10057;59.402;17.866;2023-01-31T07:28:43;99540.97;;;0.36;65.17
19795;BME280;10057;59.402;17.866;2023-01-31T07:31:11;99533.13;;;0.37;65.16
19795;BME280;10057;59.402;17.866;2023-01-31T07:33:39;99524.44;;;0.38;65.18
19795;BME280;10057;59.402;17.866;2023-01-31T07:36:07;99526.13;;;0.39;64.93
19795;BME280;10057;59.402;17.866;2023-01-31T07:38:34;99528.72;;;0.41;65.04
19795;BME280;10057;59.402;17.866;2023-01-31T07:41:02;99533.94;;;0.41;64.93
19795;BME280;10057;59.402;17.866;2023-01-31T07:43:30;99524.44;;;0.38;64.96
19795;BME280;10057;59.402;17.866;2023-01-31T07:45:57;99527.91;;;0.39;65.02
19795;BME280;10057;59.402;17.866;2023-01-31T07:48:24;99524.47;;;0.35;64.96
19795;BME280;10057;59.402;17.866;2023-01-31T07:50:56;99533.19;;;0.34;65.49
19795;BME280;10057;59.402;17.866;2023-01-31T07:53:23;99534.00;;;0.36;65.18
19795;BME280;10057;59.402;17.866;2023-01-31T07:55:50;99534.00;;;0.38;65.30
19795;BME280;10057;59.402;17.866;2023-01-31T07:58:17;99528.75;;;0.39;65.16
19795;BME280;10057;59.402;17.866;2023-01-31T08:00:43;99533.94;;;0.41;64.79
19795;BME280;10057;59.402;17.866;2023-01-31T08:03:30;99524.38;;;0.41;64.84
19795;BME280;10057;59.402;17.866;2023-01-31T08:06:01;99535.72;;;0.39;65.04
19795;BME280;10057;59.402;17.866;2023-01-31T08:08:28;99536.56;;;0.39;64.94
19795;BME280;10057;59.402;17.866;2023-01-31T08:10:56;99527.97;;;0.34;64.97
19795;BME280;10057;59.402;17.866;2023-01-31T08:13:22;99544.44;;;0.36;64.68
19795;BME280;10057;59.402;17.866;2023-01-31T08:15:52;99536.63;;;0.38;64.43
19795;BME280;10057;59.402;17.866;2023-01-31T08:18:19;99534.00;;;0.38;64.62
19795;BME280;10057;59.402;17.866;2023-01-31T08:20:46;99534.88;;;0.38;64.57
19795;BME280;10057;59.402;17.866;2023-01-31T08:23:12;99537.44;;;0.40;64.73
19795;BME280;10057;59.402;17.866;2023-01-31T08:25:39;99532.22;;;0.41;64.78
19795;BME280;10057;59.402;17.866;2023-01-31T08:28:06;99528.66;;;0.44;64.53
19795;BME280;10057;59.402;17.866;2023-01-31T08:30:33;99532.97;;;0.46;64.38
19795;BME280;10057;59.402;17.866;2023-01-31T08:33:00;99527.72;;;0.50;64.45
19795;BME280;10057;59.402;17.866;2023-01-31T08:35:27;99532.00;;;0.54;64.64
19795;BME280;10057;59.402;17.866;2023-01-31T08:37:54;99538.06;;;0.56;64.50
19795;BME280;10057;59.402;17.866;2023-01-31T08:40:39;99545.81;;;0.60;64.25
19795;BME280;10057;59.402;17.866;2023-01-31T08:43:07;99550.09;;;0.66;64.16
19795;BME280;10057;59.402;17.866;2023-01-31T08:45:35;99542.22;;;0.69;64.18
19795;BME280;10057;59.402;17.866;2023-01-31T08:48:02;99542.19;;;0.70;63.87
19795;BME280;10057;59.402;17.866;2023-01-31T08:50:30;99549.09;;;0.73;64.07
19795;BME280;10057;59.402;17.866;2023-01-31T08:53:00;99537.78;;;0.74;63.83
19795;BME280;10057;59.402;17.866;2023-01-31T08:55:30;99545.59;;;0.76;63.56
19795;BME280;10057;59.402;17.866;2023-01-31T08:57:57;99534.25;;;0.77;63.88
19795;BME280;10057;59.402;17.866;2023-01-31T09:00:26;99537.66;;;0.80;63.75
19795;BME280;10057;59.402;17.866;2023-01-31T09:02:59;99541.13;;;0.82;63.59
19795;BME280;10057;59.402;17.866;2023-01-31T09:05:27;99537.59;;;0.85;63.24
19795;BME280;10057;59.402;17.866;2023-01-31T09:07:55;99544.50;;;0.87;63.17
19795;BME280;10057;59.402;17.866;2023-01-31T09:10:22;99537.53;;;0.89;63.05
19795;BME280;10057;59.402;17.866;2023-01-31T09:12:50;99540.09;;;0.92;63.32
19795;BME280;10057;59.402;17.866;2023-01-31T09:15:17;99536.59;;;0.93;63.33
19795;BME280;10057;59.402;17.866;2023-01-31T09:17:44;99533.94;;;0.97;63.25
19795;BME280;10057;59.402;17.866;2023-01-31T09:20:11;99523.44;;;1.00;62.78
19795;BME280;10057;59.402;17.866;2023-01-31T09:22:38;99516.41;;;1.02;63.01
19795;BME280;10057;59.402;17.866;2023-01-31T09:25:05;99527.66;;;1.05;62.78
19795;BME280;10057;59.402;17.866;2023-01-31T09:27:32;99527.59;;;1.10;62.62
19795;BME280;10057;59.402;17.866;2023-01-31T09:29:59;99524.03;;;1.14;62.64
19795;BME280;10057;59.402;17.866;2023-01-31T09:32:25;99521.31;;;1.20;62.88
19795;BME280;10057;59.402;17.866;2023-01-31T09:34:52;99516.03;;;1.23;62.31
19795;BME280;10057;59.402;17.866;2023-01-31T09:37:19;99508.09;;;1.28;62.11
19795;BME280;10057;59.402;17.866;2023-01-31T09:39:45;99508.00;;;1.32;62.15
19795;BME280;10057;59.402;17.866;2023-01-31T09:42:35;99511.41;;;1.36;61.50
19795;BME280;10057;59.402;17.866;2023-01-31T09:45:23;99499.16;;;1.39;61.72
19795;BME280;10057;59.402;17.866;2023-01-31T09:47:55;99512.22;;;1.41;61.32
19795;BME280;10057;59.402;17.866;2023-01-31T09:50:42;99510.41;;;1.43;61.28
19795;BME280;10057;59.402;17.866;2023-01-31T09:53:12;99510.34;;;1.48;61.16
19795;BME280;10057;59.402;17.866;2023-01-31T09:56:22;99498.97;;;1.49;60.04
19795;BME280;10057;59.402;17.866;2023-01-31T09:59:15;99493.72;;;1.50;59.99
19795;BME280;10057;59.402;17.866;2023-01-31T10:02:08;99490.16;;;1.54;60.55
19795;BME280;10057;59.402;17.866;2023-01-31T10:04:54;99495.25;;;1.60;59.74
19795;BME280;10057;59.402;17.866;2023-01-31T10:07:32;99486.47;;;1.64;60.10
19795;BME280;10057;59.402;17.866;2023-01-31T10:13:10;99491.53;;;1.72;60.19
19795;BME280;10057;59.402;17.866;2023-01-31T10:15:43;99482.72;;;1.76;59.97
19795;BME280;10057;59.402;17.866;2023-01-31T10:18:31;99488.81;;;1.78;59.66
19795;BME280;10057;59.402;17.866;2023-01-31T10:21:05;99485.22;;;1.82;58.97
19795;BME280;10057;59.402;17.866;2023-01-31T10:23:55;99476.50;;;1.82;59.33
19795;BME280;10057;59.402;17.866;2023-01-31T10:26:26;99476.59;;;1.79;59.10
19795;BME280;10057;59.402;17.866;2023-01-31T10:28:57;99479.16;;;1.80;58.75
19795;BME280;10057;59.402;17.866;2023-01-31T10:39:36;99459.88;;;1.84;57.35
19795;BME280;10057;59.402;17.866;2023-01-31T10:44:57;99450.31;;;1.83;57.39
19795;BME280;10057;59.402;17.866;2023-01-31T10:47:31;99445.09;;;1.83;57.39
19795;BME280;10057;59.402;17.866;2023-01-31T10:50:00;99438.09;;;1.85;57.15
19795;BME280;10057;59.402;17.866;2023-01-31T10:57:58;99444.16;;;1.86;57.13
19795;BME280;10057;59.402;17.866;2023-01-31T11:00:28;99443.25;;;1.87;56.60
19795;BME280;10057;59.402;17.866;2023-01-31T11:02:56;99440.66;;;1.87;56.33
19795;BME280;10057;59.402;17.866;2023-01-31T11:05:26;99430.19;;;1.87;56.63
19795;BME280;10057;59.402;17.866;2023-01-31T11:07:58;99438.00;;;1.88;56.86
19795;BME280;10057;59.402;17.866;2023-01-31T11:10:29;99437.94;;;1.92;56.68
19795;BME280;10057;59.402;17.866;2023-01-31T11:13:01;99429.25;;;1.89;56.51
19795;BME280;10057;59.402;17.866;2023-01-31T11:15:40;99430.97;;;1.90;56.58
19795;BME280;10057;59.402;17.866;2023-01-31T11:18:13;99428.34;;;1.92;56.47
19795;BME280;10057;59.402;17.866;2023-01-31T11:20:48;99423.97;;;1.93;56.41
19795;BME280;10057;59.402;17.866;2023-01-31T11:23:21;99421.34;;;1.93;56.59
19795;BME280;10057;59.402;17.866;2023-01-31T11:25:50;99419.59;;;1.93;56.34
19795;BME280;10057;59.402;17.866;2023-01-31T11:28:26;99411.69;;;1.95;56.63
19795;BME280;10057;59.402;17.866;2023-01-31T11:30:54;99400.34;;;1.96;56.35
19795;BME280;10057;59.402;17.866;2023-01-31T11:36:13;99393.28;;;1.99;56.53
19795;BME280;10057;59.402;17.866;2023-01-31T11:38:40;99391.50;;;2.01;56.33
19795;BME280;10057;59.402;17.866;2023-01-31T11:41:36;99388.00;;;2.02;55.98
19795;BME280;10057;59.402;17.866;2023-01-31T11:44:19;99381.91;;;2.02;55.90
19795;BME280;10057;59.402;17.866;2023-01-31T11:49:27;99378.31;;;2.06;56.08
19795;BME280;10057;59.402;17.866;2023-01-31T11:52:02;99375.66;;;2.07;55.56
19795;BME280;10057;59.402;17.866;2023-01-31T11:54:39;99374.78;;;2.07;56.07
19795;BME280;10057;59.402;17.866;2023-01-31T11:57:14;99375.66;;;2.07;56.21
19795;BME280;10057;59.402;17.866;2023-01-31T11:59:41;99380.03;;;2.07;56.22
19795;BME280;10057;59.402;17.866;2023-01-31T12:02:39;99377.34;;;2.10;56.11
19795;BME280;10057;59.402;17.866;2023-01-31T12:05:11;99370.31;;;2.12;56.50
19795;BME280;10057;59.402;17.866;2023-01-31T12:07:50;99373.75;;;2.14;56.33
19795;BME280;10057;59.402;17.866;2023-01-31T12:10:45;99355.34;;;2.17;56.20
19795;BME280;10057;59.402;17.866;2023-01-31T12:13:17;99350.84;;;2.22;56.25
19795;BME280;10057;59.402;17.866;2023-01-31T12:15:57;99352.53;;;2.26;56.08
19795;BME280;10057;59.402;17.866;2023-01-31T12:21:15;99341.97;;;2.29;55.24
19795;BME280;10057;59.402;17.866;2023-01-31T12:24:05;99335.84;;;2.29;55.62
19795;BME280;10057;59.402;17.866;2023-01-31T12:27:25;99334.13;;;2.29;55.74
19795;BME280;10057;59.402;17.866;2023-01-31T12:29:58;99338.44;;;2.30;55.65
19795;BME280;10057;59.402;17.866;2023-01-31T12:32:39;99333.94;;;2.35;56.00
19795;BME280;10057;59.402;17.866;2023-01-31T12:38:15;99324.16;;;2.44;56.09
19795;BME280;10057;59.402;17.866;2023-01-31T12:43:57;99317.00;;;2.50;56.26
19795;BME280;10057;59.402;17.866;2023-01-31T12:47:09;99303.00;;;2.51;56.47
19795;BME280;10057;59.402;17.866;2023-01-31T12:50:04;99305.56;;;2.53;56.49
19795;BME280;10057;59.402;17.866;2023-01-31T12:52:49;99307.38;;;2.51;55.99
19795;BME280;10057;59.402;17.866;2023-01-31T13:01:01;99303.97;;;2.47;56.16
19795;BME280;10057;59.402;17.866;2023-01-31T13:06:18;99297.97;;;2.44;55.72
19795;BME280;10057;59.402;17.866;2023-01-31T13:08:52;99304.09;;;2.43;55.26
19795;BME280;10057;59.402;17.866;2023-01-31T13:14:03;99304.19;;;2.40;55.09
19795;BME280;10057;59.402;17.866;2023-01-31T13:16:42;99307.69;;;2.38;55.23
19795;BME280;10057;59.402;17.866;2023-01-31T13:19:31;99302.53;;;2.35;55.04
19795;BME280;10057;59.402;17.866;2023-01-31T13:22:06;99300.06;;;2.31;55.23
19795;BME280;10057;59.402;17.866;2023-01-31T13:24:39;99303.56;;;2.30;55.22
19795;BME280;10057;59.402;17.866;2023-01-31T13:29:39;99301.97;;;2.24;55.36
19795;BME280;10057;59.402;17.866;2023-01-31T13:32:29;99297.78;;;2.17;55.71
19795;BME280;10057;59.402;17.866;2023-01-31T13:35:03;99290.84;;;2.16;56.18
19795;BME280;10057;59.402;17.866;2023-01-31T13:37:35;99286.50;;;2.15;56.03
19795;BME280;10057;59.402;17.866;2023-01-31T13:40:27;99288.31;;;2.13;56.00
19795;BME280;10057;59.402;17.866;2023-01-31T13:42:58;99287.47;;;2.11;56.22
19795;BME280;10057;59.402;17.866;2023-01-31T13:45:29;99283.28;;;2.05;55.98
19795;BME280;10057;59.402;17.866;2023-01-31T13:48:04;99271.22;;;2.00;56.18
19795;BME280;10057;59.402;17.866;2023-01-31T13:50:37;99281.75;;;1.97;56.51
19795;BME280;10057;59.402;17.866;2023-01-31T13:53:15;99275.75;;;1.93;56.30
19795;BME280;10057;59.402;17.866;2023-01-31T13:55:47;99274.88;;;1.93;56.50
19795;BME280;10057;59.402;17.866;2023-01-31T14:01:11;99276.72;;;1.89;56.45
19795;BME280;10057;59.402;17.866;2023-01-31T14:04:18;99283.78;;;1.85;56.86
19795;BME280;10057;59.402;17.866;2023-01-31T14:09:31;99271.00;;;1.73;56.72
19795;BME280;10057;59.402;17.866;2023-01-31T14:14:52;99267.66;;;1.66;56.79
19795;BME280;10057;59.402;17.866;2023-01-31T14:22:18;99250.50;;;1.56;56.73
19795;BME280;10057;59.402;17.866;2023-01-31T14:27:33;99237.75;;;1.44;56.58
19795;BME280;10057;59.402;17.866;2023-01-31T14:32:47;99230.06;;;1.36;57.29
19795;BME280;10057;59.402;17.866;2023-01-31T14:46:33;99236.56;;;1.20;57.29
19795;BME280;10057;59.402;17.866;2023-01-31T14:54:43;99235.72;;;1.18;57.62
19795;BME280;10057;59.402;17.866;2023-01-31T15:05:05;99231.34;;;1.20;57.47
19795;BME280;10057;59.402;17.866;2023-01-31T15:07:32;99231.34;;;1.20;57.47
19795;BME280;10057;59.402;17.866;2023-01-31T15:09:59;99217.38;;;1.19;57.40
19795;BME280;10057;59.402;17.866;2023-01-31T15:12:52;99220.06;;;1.18;57.75
19795;BME280;10057;59.402;17.866;2023-01-31T15:17:53;99216.78;;;1.08;58.06
19795;BME280;10057;59.402;17.866;2023-01-31T15:20:34;99211.63;;;1.07;57.57
19795;BME280;10057;59.402;17.866;2023-01-31T15:23:03;99204.66;;;1.06;57.70
19795;BME280;10057;59.402;17.866;2023-01-31T15:25:39;99207.31;;;1.04;58.29
19795;BME280;10057;59.402;17.866;2023-01-31T15:28:14;99206.53;;;1.01;58.09
19795;BME280;10057;59.402;17.866;2023-01-31T15:30:42;99201.41;;;0.96;58.08
19795;BME280;10057;59.402;17.866;2023-01-31T15:33:17;99195.34;;;0.94;57.96
19795;BME280;10057;59.402;17.866;2023-01-31T15:39:31;99184.13;;;0.89;58.57
19795;BME280;10057;59.402;17.866;2023-01-31T15:42:28;99178.13;;;0.85;58.08